sensor_id;sensor_type;location;lat;lon;timestamp;temperature;humidity
3232;DHT22;1628;48.884;9.210;2022-08-21T04:00:24;15.90;99.90
3232;DHT22;1628;48.884;9.210;2022-08-21T04:02:51;15.90;99.90
3232;DHT22;1628;48.884;9.210;2022-08-21T04:05:19;15.90;99.90
3232;DHT22;1628;48.884;9.210;2022-08-21T04:07:54;15.90;99.90
3232;DHT22;1628;48.884;9.210;2022-08-21T04:10:22;15.90;99.90
3232;DHT22;1628;48.884;9.210;2022-08-21T04:12:50;15.90;99.90
3232;DHT22;1628;48.884;9.210;2022-08-21T04:15:17;15.90;99.90
3232;DHT22;1628;48.884;9.210;2022-08-21T04:17:45;15.90;99.90
3232;DHT22;1628;48.884;9.210;2022-08-21T04:20:12;15.90;99.90
3232;DHT22;1628;48.884;9.210;2022-08-21T04:22:39;15.90;99.90
3232;DHT22;1628;48.884;9.210;2022-08-21T04:25:06;15.90;99.90
3232;DHT22;1628;48.884;9.210;2022-08-21T04:27:34;15.90;99.90
3232;DHT22;1628;48.884;9.210;2022-08-21T04:30:00;15.90;99.90
3232;DHT22;1628;48.884;9.210;2022-08-21T04:32:27;15.90;99.90
3232;DHT22;1628;48.884;9.210;2022-08-21T04:34:59;15.90;99.90
3232;DHT22;1628;48.884;9.210;2022-08-21T04:37:26;15.90;99.90
3232;DHT22;1628;48.884;9.210;2022-08-21T04:39:53;15.90;99.90
3232;DHT22;1628;48.884;9.210;2022-08-21T04:42:22;15.90;99.90
3232;DHT22;1628;48.884;9.210;2022-08-21T04:44:49;15.90;99.90
3232;DHT22;1628;48.884;9.210;2022-08-21T04:47:15;15.90;99.90
3232;DHT22;1628;48.884;9.210;2022-08-21T04:49:42;15.90;99.90
3232;DHT22;1628;48.884;9.210;2022-08-21T04:52:11;15.90;99.90
3232;DHT22;1628;48.884;9.210;2022-08-21T04:54:40;16.00;99.90
3232;DHT22;1628;48.884;9.210;2022-08-21T04:57:09;16.00;99.90
3232;DHT22;1628;48.884;9.210;2022-08-21T04:59:39;16.00;99.90
3232;DHT22;1628;48.884;9.210;2022-08-21T05:02:07;16.00;99.90
3232;DHT22;1628;48.884;9.210;2022-08-21T05:04:36;16.00;99.90
3232;DHT22;1628;48.884;9.210;2022-08-21T05:07:06;16.00;99.90
3232;DHT22;1628;48.884;9.210;2022-08-21T05:09:37;16.10;99.90
3232;DHT22;1628;48.884;9.210;2022-08-21T05:12:04;16.10;99.90
3232;DHT22;1628;48.884;9.210;2022-08-21T05:14:31;16.00;99.90
3232;DHT22;1628;48.884;9.210;2022-08-21T05:16:58;16.00;99.90
3232;DHT22;1628;48.884;9.210;2022-08-21T05:19:25;16.00;99.90
3232;DHT22;1628;48.884;9.210;2022-08-21T05:21:53;16.10;99.90
3232;DHT22;1628;48.884;9.210;2022-08-21T05:24:20;16.10;99.90
3232;DHT22;1628;48.884;9.210;2022-08-21T05:26:48;16.10;99.90
3232;DHT22;1628;48.884;9.210;2022-08-21T05:29:15;16.10;99.90
3232;DHT22;1628;48.884;9.210;2022-08-21T05:31:42;16.10;99.90
3232;DHT22;1628;48.884;9.210;2022-08-21T05:34:09;16.20;99.90
3232;DHT22;1628;48.884;9.210;2022-08-21T05:36:36;16.30;99.90
3232;DHT22;1628;48.884;9.210;2022-08-21T05:39:03;16.40;99.90
3232;DHT22;1628;48.884;9.210;2022-08-21T05:41:30;16.50;99.90
3232;DHT22;1628;48.884;9.210;2022-08-21T05:43:58;16.80;99.90
3232;DHT22;1628;48.884;9.210;2022-08-21T05:46:24;17.10;99.90
3232;DHT22;1628;48.884;9.210;2022-08-21T05:48:51;17.40;99.90
3232;DHT22;1628;48.884;9.210;2022-08-21T05:51:18;17.70;99.90
3232;DHT22;1628;48.884;9.210;2022-08-21T05:53:45;18.10;99.90
3232;DHT22;1628;48.884;9.210;2022-08-21T05:56:12;18.50;99.90
3232;DHT22;1628;48.884;9.210;2022-08-21T05:58:39;18.90;99.90
3232;DHT22;1628;48.884;9.210;2022-08-21T06:01:08;19.20;99.90
3232;DHT22;1628;48.884;9.210;2022-08-21T06:03:36;19.60;99.90
3232;DHT22;1628;48.884;9.210;2022-08-21T06:06:03;19.90;99.90
3232;DHT22;1628;48.884;9.210;2022-08-21T06:08:31;20.30;99.90
3232;DHT22;1628;48.884;9.210;2022-08-21T06:11:00;20.80;99.90
3232;DHT22;1628;48.884;9.210;2022-08-21T06:13:27;21.20;99.90
3232;DHT22;1628;48.884;9.210;2022-08-21T06:16:02;21.60;99.90
3232;DHT22;1628;48.884;9.210;2022-08-21T06:18:30;21.80;99.90
3232;DHT22;1628;48.884;9.210;2022-08-21T06:20:57;22.10;99.90
3232;DHT22;1628;48.884;9.210;2022-08-21T06:23:24;22.40;99.90
3232;DHT22;1628;48.884;9.210;2022-08-21T06:25:50;22.50;99.90
3232;DHT22;1628;48.884;9.210;2022-08-21T06:28:17;22.60;99.90
3232;DHT22;1628;48.884;9.210;2022-08-21T06:30:44;22.90;99.90
3232;DHT22;1628;48.884;9.210;2022-08-21T06:33:10;23.00;99.90
3232;DHT22;1628;48.884;9.210;2022-08-21T06:35:38;23.40;99.90
3232;DHT22;1628;48.884;9.210;2022-08-21T06:38:05;23.80;99.90
3232;DHT22;1628;48.884;9.210;2022-08-21T06:40:32;24.00;99.90
3232;DHT22;1628;48.884;9.210;2022-08-21T06:43:06;24.40;99.90
3232;DHT22;1628;48.884;9.210;2022-08-21T06:45:33;24.60;99.90
3232;DHT22;1628;48.884;9.210;2022-08-21T06:48:00;24.60;99.90
3232;DHT22;1628;48.884;9.210;2022-08-21T06:50:27;24.80;99.90
3232;DHT22;1628;48.884;9.210;2022-08-21T06:53:00;25.20;99.90
3232;DHT22;1628;48.884;9.210;2022-08-21T06:55:28;25.50;99.90
3232;DHT22;1628;48.884;9.210;2022-08-21T06:57:54;26.00;99.90
3232;DHT22;1628;48.884;9.210;2022-08-21T07:00:21;26.30;99.90
3232;DHT22;1628;48.884;9.210;2022-08-21T07:02:48;26.70;99.80
3232;DHT22;1628;48.884;9.210;2022-08-21T07:05:15;27.00;99.50
3232;DHT22;1628;48.884;9.210;2022-08-21T07:07:42;27.20;98.20
3232;DHT22;1628;48.884;9.210;2022-08-21T07:10:10;27.30;96.60
3232;DHT22;1628;48.884;9.210;2022-08-21T07:12:37;27.30;97.20
3232;DHT22;1628;48.884;9.210;2022-08-21T07:15:05;27.70;96.50
3232;DHT22;1628;48.884;9.210;2022-08-21T07:17:31;28.10;95.70
3232;DHT22;1628;48.884;9.210;2022-08-21T07:19:58;28.70;92.90
3232;DHT22;1628;48.884;9.210;2022-08-21T07:22:25;28.90;91.10
3232;DHT22;1628;48.884;9.210;2022-08-21T07:24:53;29.20;90.50
3232;DHT22;1628;48.884;9.210;2022-08-21T07:27:21;28.90;91.00
3232;DHT22;1628;48.884;9.210;2022-08-21T07:29:47;28.70;90.90
3232;DHT22;1628;48.884;9.210;2022-08-21T07:32:14;29.00;90.60
3232;DHT22;1628;48.884;9.210;2022-08-21T07:34:42;29.40;89.80
3232;DHT22;1628;48.884;9.210;2022-08-21T07:37:09;29.30;87.20
3232;DHT22;1628;48.884;9.210;2022-08-21T07:39:35;29.20;85.80
3232;DHT22;1628;48.884;9.210;2022-08-21T07:42:03;29.50;84.80
3232;DHT22;1628;48.884;9.210;2022-08-21T07:44:31;29.00;83.70
3232;DHT22;1628;48.884;9.210;2022-08-21T07:46:59;29.00;84.90
3232;DHT22;1628;48.884;9.210;2022-08-21T07:49:26;29.30;84.70
3232;DHT22;1628;48.884;9.210;2022-08-21T07:51:53;29.20;83.20
3232;DHT22;1628;48.884;9.210;2022-08-21T07:54:20;29.30;82.80
3232;DHT22;1628;48.884;9.210;2022-08-21T07:56:47;29.00;80.80
3232;DHT22;1628;48.884;9.210;2022-08-21T07:59:13;28.70;80.00
3232;DHT22;1628;48.884;9.210;2022-08-21T08:01:41;29.50;82.40
3232;DHT22;1628;48.884;9.210;2022-08-21T08:04:08;30.10;81.60
3232;DHT22;1628;48.884;9.210;2022-08-21T08:06:35;30.90;77.90
3232;DHT22;1628;48.884;9.210;2022-08-21T08:09:01;31.20;76.00
3232;DHT22;1628;48.884;9.210;2022-08-21T08:11:29;30.70;73.30
3232;DHT22;1628;48.884;9.210;2022-08-21T08:13:56;30.50;76.30
3232;DHT22;1628;48.884;9.210;2022-08-21T08:16:26;30.90;72.20
3232;DHT22;1628;48.884;9.210;2022-08-21T08:18:54;31.00;72.90
3232;DHT22;1628;48.884;9.210;2022-08-21T08:21:21;30.50;71.30
3232;DHT22;1628;48.884;9.210;2022-08-21T08:23:48;30.00;71.90
3232;DHT22;1628;48.884;9.210;2022-08-21T08:26:14;30.40;74.90
3232;DHT22;1628;48.884;9.210;2022-08-21T08:28:42;30.90;73.00
3232;DHT22;1628;48.884;9.210;2022-08-21T08:31:09;31.50;75.40
3232;DHT22;1628;48.884;9.210;2022-08-21T08:33:36;32.30;75.70
3232;DHT22;1628;48.884;9.210;2022-08-21T08:36:04;32.90;71.60
3232;DHT22;1628;48.884;9.210;2022-08-21T08:38:31;33.80;69.90
3232;DHT22;1628;48.884;9.210;2022-08-21T08:41:02;34.40;65.60
3232;DHT22;1628;48.884;9.210;2022-08-21T08:43:30;35.00;65.70
3232;DHT22;1628;48.884;9.210;2022-08-21T08:46:02;35.50;60.70
3232;DHT22;1628;48.884;9.210;2022-08-21T08:48:49;35.70;62.20
3232;DHT22;1628;48.884;9.210;2022-08-21T08:51:22;35.80;58.40
3232;DHT22;1628;48.884;9.210;2022-08-21T08:53:52;36.20;57.80
3232;DHT22;1628;48.884;9.210;2022-08-21T08:56:26;35.70;58.10
3232;DHT22;1628;48.884;9.210;2022-08-21T08:58:56;35.80;57.70
3232;DHT22;1628;48.884;9.210;2022-08-21T09:01:23;35.70;57.60
3232;DHT22;1628;48.884;9.210;2022-08-21T09:03:50;35.90;56.00
3232;DHT22;1628;48.884;9.210;2022-08-21T09:06:49;35.70;58.40
3232;DHT22;1628;48.884;9.210;2022-08-21T09:09:28;35.70;57.90
3232;DHT22;1628;48.884;9.210;2022-08-21T09:12:01;35.70;58.20
3232;DHT22;1628;48.884;9.210;2022-08-21T09:14:37;36.00;55.90
3232;DHT22;1628;48.884;9.210;2022-08-21T09:17:18;36.30;55.00
3232;DHT22;1628;48.884;9.210;2022-08-21T09:19:56;36.30;53.40
3232;DHT22;1628;48.884;9.210;2022-08-21T09:22:32;36.40;53.70
3232;DHT22;1628;48.884;9.210;2022-08-21T09:25:08;36.10;56.40
3232;DHT22;1628;48.884;9.210;2022-08-21T09:27:35;36.20;53.40
3232;DHT22;1628;48.884;9.210;2022-08-21T09:30:04;36.20;54.70
3232;DHT22;1628;48.884;9.210;2022-08-21T09:32:32;35.80;52.20
3232;DHT22;1628;48.884;9.210;2022-08-21T09:35:05;36.10;54.10
3232;DHT22;1628;48.884;9.210;2022-08-21T09:37:46;36.60;51.00
3232;DHT22;1628;48.884;9.210;2022-08-21T09:40:23;36.90;50.80
3232;DHT22;1628;48.884;9.210;2022-08-21T09:43:00;37.50;48.50
3232;DHT22;1628;48.884;9.210;2022-08-21T09:45:27;37.50;49.70
3232;DHT22;1628;48.884;9.210;2022-08-21T09:47:54;36.90;49.00
3232;DHT22;1628;48.884;9.210;2022-08-21T09:50:23;37.00;47.10
3232;DHT22;1628;48.884;9.210;2022-08-21T09:52:55;36.80;48.40
3232;DHT22;1628;48.884;9.210;2022-08-21T09:55:30;37.10;47.20
3232;DHT22;1628;48.884;9.210;2022-08-21T09:58:15;37.50;47.40
3232;DHT22;1628;48.884;9.210;2022-08-21T10:00:43;37.90;47.00
3232;DHT22;1628;48.884;9.210;2022-08-21T10:03:13;38.30;46.00
3232;DHT22;1628;48.884;9.210;2022-08-21T10:05:49;38.30;45.40
3232;DHT22;1628;48.884;9.210;2022-08-21T10:08:20;38.10;45.80
3232;DHT22;1628;48.884;9.210;2022-08-21T10:10:51;38.20;45.50
3232;DHT22;1628;48.884;9.210;2022-08-21T10:13:22;38.20;45.00
3232;DHT22;1628;48.884;9.210;2022-08-21T10:16:00;37.80;44.00
3232;DHT22;1628;48.884;9.210;2022-08-21T10:18:36;38.00;44.40
3232;DHT22;1628;48.884;9.210;2022-08-21T10:21:10;38.10;45.20
3232;DHT22;1628;48.884;9.210;2022-08-21T10:23:48;37.60;45.10
3232;DHT22;1628;48.884;9.210;2022-08-21T10:26:27;37.20;46.60
3232;DHT22;1628;48.884;9.210;2022-08-21T10:29:02;37.40;46.30
3232;DHT22;1628;48.884;9.210;2022-08-21T10:31:39;37.20;46.10
3232;DHT22;1628;48.884;9.210;2022-08-21T10:34:17;37.30;46.30
3232;DHT22;1628;48.884;9.210;2022-08-21T10:36:57;37.40;46.10
3232;DHT22;1628;48.884;9.210;2022-08-21T10:39:32;37.70;44.20
3232;DHT22;1628;48.884;9.210;2022-08-21T10:42:12;37.80;44.20
3232;DHT22;1628;48.884;9.210;2022-08-21T10:44:55;38.10;44.70
3232;DHT22;1628;48.884;9.210;2022-08-21T10:47:31;37.80;44.10
3232;DHT22;1628;48.884;9.210;2022-08-21T10:50:04;37.70;43.30
3232;DHT22;1628;48.884;9.210;2022-08-21T10:52:47;37.70;46.00
3232;DHT22;1628;48.884;9.210;2022-08-21T10:55:19;37.50;45.20
3232;DHT22;1628;48.884;9.210;2022-08-21T10:57:50;37.60;44.50
3232;DHT22;1628;48.884;9.210;2022-08-21T11:00:20;37.50;43.80
3232;DHT22;1628;48.884;9.210;2022-08-21T11:02:50;37.40;45.40
3232;DHT22;1628;48.884;9.210;2022-08-21T11:05:23;37.20;45.30
3232;DHT22;1628;48.884;9.210;2022-08-21T11:07:54;37.00;43.80
3232;DHT22;1628;48.884;9.210;2022-08-21T11:10:25;36.70;45.70
3232;DHT22;1628;48.884;9.210;2022-08-21T11:12:54;36.50;43.10
3232;DHT22;1628;48.884;9.210;2022-08-21T11:15:33;36.20;44.30
3232;DHT22;1628;48.884;9.210;2022-08-21T11:18:19;35.50;45.90
3232;DHT22;1628;48.884;9.210;2022-08-21T11:20:52;35.30;46.70
3232;DHT22;1628;48.884;9.210;2022-08-21T11:23:28;35.20;44.60
3232;DHT22;1628;48.884;9.210;2022-08-21T11:26:01;35.00;46.30
3232;DHT22;1628;48.884;9.210;2022-08-21T11:28:33;34.50;44.20
3232;DHT22;1628;48.884;9.210;2022-08-21T11:31:10;34.40;45.00
3232;DHT22;1628;48.884;9.210;2022-08-21T11:33:50;34.00;45.10
3232;DHT22;1628;48.884;9.210;2022-08-21T11:36:36;33.60;47.10
3232;DHT22;1628;48.884;9.210;2022-08-21T11:39:12;33.30;46.50
3232;DHT22;1628;48.884;9.210;2022-08-21T11:41:51;32.90;46.80
3232;DHT22;1628;48.884;9.210;2022-08-21T11:44:29;32.60;47.60
3232;DHT22;1628;48.884;9.210;2022-08-21T11:47:05;32.50;48.80
3232;DHT22;1628;48.884;9.210;2022-08-21T11:49:49;32.40;50.20
3232;DHT22;1628;48.884;9.210;2022-08-21T11:52:21;32.30;48.00
3232;DHT22;1628;48.884;9.210;2022-08-21T11:54:55;31.90;47.80
3232;DHT22;1628;48.884;9.210;2022-08-21T11:57:28;31.60;49.40
3232;DHT22;1628;48.884;9.210;2022-08-21T12:00:03;31.60;50.80
3232;DHT22;1628;48.884;9.210;2022-08-21T12:02:35;31.60;51.30
3232;DHT22;1628;48.884;9.210;2022-08-21T12:05:05;31.40;51.70
3232;DHT22;1628;48.884;9.210;2022-08-21T12:07:35;31.10;52.30
3232;DHT22;1628;48.884;9.210;2022-08-21T12:10:05;31.00;51.40
3232;DHT22;1628;48.884;9.210;2022-08-21T12:12:35;30.90;52.60
3232;DHT22;1628;48.884;9.210;2022-08-21T12:15:24;30.90;52.00
3232;DHT22;1628;48.884;9.210;2022-08-21T12:17:55;30.90;50.90
3232;DHT22;1628;48.884;9.210;2022-08-21T12:20:34;30.80;51.60
3232;DHT22;1628;48.884;9.210;2022-08-21T12:23:15;30.60;51.30
3232;DHT22;1628;48.884;9.210;2022-08-21T12:25:44;30.50;51.20
3232;DHT22;1628;48.884;9.210;2022-08-21T12:28:16;30.60;51.90
3232;DHT22;1628;48.884;9.210;2022-08-21T12:30:47;30.70;51.00
3232;DHT22;1628;48.884;9.210;2022-08-21T12:33:23;30.80;51.60
3232;DHT22;1628;48.884;9.210;2022-08-21T12:35:52;30.80;51.00
3232;DHT22;1628;48.884;9.210;2022-08-21T12:38:22;31.00;52.20
3232;DHT22;1628;48.884;9.210;2022-08-21T12:40:53;31.00;51.50
3232;DHT22;1628;48.884;9.210;2022-08-21T12:43:27;31.00;50.40
3232;DHT22;1628;48.884;9.210;2022-08-21T12:45:55;31.10;47.90
3232;DHT22;1628;48.884;9.210;2022-08-21T12:48:27;31.20;48.50
3232;DHT22;1628;48.884;9.210;2022-08-21T12:50:56;31.20;48.30
3232;DHT22;1628;48.884;9.210;2022-08-21T12:53:30;31.20;48.40
3232;DHT22;1628;48.884;9.210;2022-08-21T12:56:01;31.20;49.00
3232;DHT22;1628;48.884;9.210;2022-08-21T12:58:31;31.00;48.40
3232;DHT22;1628;48.884;9.210;2022-08-21T13:01:03;31.00;49.90
3232;DHT22;1628;48.884;9.210;2022-08-21T13:03:31;31.00;50.30
3232;DHT22;1628;48.884;9.210;2022-08-21T13:06:03;31.00;49.40
3232;DHT22;1628;48.884;9.210;2022-08-21T13:08:33;31.10;49.30
3232;DHT22;1628;48.884;9.210;2022-08-21T13:11:05;31.10;49.70
3232;DHT22;1628;48.884;9.210;2022-08-21T13:13:33;31.10;48.30
3232;DHT22;1628;48.884;9.210;2022-08-21T13:16:04;31.10;49.50
3232;DHT22;1628;48.884;9.210;2022-08-21T13:18:32;30.70;46.60
3232;DHT22;1628;48.884;9.210;2022-08-21T13:21:05;30.50;47.50
3232;DHT22;1628;48.884;9.210;2022-08-21T13:23:33;30.30;49.50
3232;DHT22;1628;48.884;9.210;2022-08-21T13:25:59;30.30;49.50
3232;DHT22;1628;48.884;9.210;2022-08-21T13:28:34;30.10;48.40
3232;DHT22;1628;48.884;9.210;2022-08-21T13:31:01;30.00;49.00
3232;DHT22;1628;48.884;9.210;2022-08-21T13:33:34;30.10;49.20
3232;DHT22;1628;48.884;9.210;2022-08-21T13:36:04;30.20;47.70
3232;DHT22;1628;48.884;9.210;2022-08-21T13:38:33;30.20;48.50
3232;DHT22;1628;48.884;9.210;2022-08-21T13:41:03;30.30;48.70
3232;DHT22;1628;48.884;9.210;2022-08-21T13:43:34;30.30;47.50
3232;DHT22;1628;48.884;9.210;2022-08-21T13:46:06;30.30;47.00
3232;DHT22;1628;48.884;9.210;2022-08-21T13:48:34;30.10;47.80
3232;DHT22;1628;48.884;9.210;2022-08-21T13:51:02;30.00;47.00
3232;DHT22;1628;48.884;9.210;2022-08-21T13:53:32;29.90;48.90
3232;DHT22;1628;48.884;9.210;2022-08-21T13:56:00;30.00;47.60
3232;DHT22;1628;48.884;9.210;2022-08-21T13:58:28;30.00;49.20
3232;DHT22;1628;48.884;9.210;2022-08-21T14:00:58;29.90;48.10
3232;DHT22;1628;48.884;9.210;2022-08-21T14:03:31;29.90;50.80
3232;DHT22;1628;48.884;9.210;2022-08-21T14:05:59;29.90;50.10
3232;DHT22;1628;48.884;9.210;2022-08-21T14:08:29;30.00;48.90
3232;DHT22;1628;48.884;9.210;2022-08-21T14:10:57;30.10;48.30
3232;DHT22;1628;48.884;9.210;2022-08-21T14:13:30;30.20;51.20
3232;DHT22;1628;48.884;9.210;2022-08-21T14:16:02;30.20;48.20
3232;DHT22;1628;48.884;9.210;2022-08-21T14:18:29;30.30;48.40
3232;DHT22;1628;48.884;9.210;2022-08-21T14:21:07;30.30;48.00
3232;DHT22;1628;48.884;9.210;2022-08-21T14:23:34;30.30;46.80
3232;DHT22;1628;48.884;9.210;2022-08-21T14:26:04;30.30;48.30
3232;DHT22;1628;48.884;9.210;2022-08-21T14:28:33;30.20;48.70
3232;DHT22;1628;48.884;9.210;2022-08-21T14:31:14;30.10;47.20
3232;DHT22;1628;48.884;9.210;2022-08-21T14:33:41;29.90;47.80
3232;DHT22;1628;48.884;9.210;2022-08-21T14:36:08;29.70;47.50
3232;DHT22;1628;48.884;9.210;2022-08-21T14:38:37;29.50;50.20
3232;DHT22;1628;48.884;9.210;2022-08-21T14:41:17;29.30;49.90
3232;DHT22;1628;48.884;9.210;2022-08-21T14:43:45;29.30;50.80
3232;DHT22;1628;48.884;9.210;2022-08-21T14:46:19;29.10;50.80
3232;DHT22;1628;48.884;9.210;2022-08-21T14:48:46;28.90;49.10
3232;DHT22;1628;48.884;9.210;2022-08-21T14:51:14;28.70;49.30
3232;DHT22;1628;48.884;9.210;2022-08-21T14:53:41;28.70;50.70
3232;DHT22;1628;48.884;9.210;2022-08-21T14:56:08;28.70;50.30
3232;DHT22;1628;48.884;9.210;2022-08-21T14:58:38;28.90;49.00
3232;DHT22;1628;48.884;9.210;2022-08-21T15:01:06;28.90;48.70
3232;DHT22;1628;48.884;9.210;2022-08-21T15:03:35;29.00;48.80
3232;DHT22;1628;48.884;9.210;2022-08-21T15:06:04;29.20;51.10
3232;DHT22;1628;48.884;9.210;2022-08-21T15:08:31;29.30;49.40
3232;DHT22;1628;48.884;9.210;2022-08-21T15:10:59;29.50;50.40
3232;DHT22;1628;48.884;9.210;2022-08-21T15:13:26;29.60;48.10
3232;DHT22;1628;48.884;9.210;2022-08-21T15:15:53;29.70;48.40
3232;DHT22;1628;48.884;9.210;2022-08-21T15:18:22;29.60;47.50
3232;DHT22;1628;48.884;9.210;2022-08-21T15:20:51;29.60;47.50
3232;DHT22;1628;48.884;9.210;2022-08-21T15:23:18;29.60;50.20
3232;DHT22;1628;48.884;9.210;2022-08-21T15:25:46;29.70;48.30
3232;DHT22;1628;48.884;9.210;2022-08-21T15:28:15;29.70;46.60
3232;DHT22;1628;48.884;9.210;2022-08-21T15:30:43;29.60;46.70
3232;DHT22;1628;48.884;9.210;2022-08-21T15:33:10;29.50;47.10
3232;DHT22;1628;48.884;9.210;2022-08-21T15:35:37;29.40;47.20
3232;DHT22;1628;48.884;9.210;2022-08-21T15:38:06;29.40;47.90
3232;DHT22;1628;48.884;9.210;2022-08-21T15:40:34;29.30;47.40
3232;DHT22;1628;48.884;9.210;2022-08-21T15:43:03;29.30;49.60
3232;DHT22;1628;48.884;9.210;2022-08-21T15:45:30;29.40;49.00
3232;DHT22;1628;48.884;9.210;2022-08-21T15:47:57;29.50;48.60
3232;DHT22;1628;48.884;9.210;2022-08-21T15:50:24;29.50;49.10
3232;DHT22;1628;48.884;9.210;2022-08-21T15:52:52;29.60;48.40
3232;DHT22;1628;48.884;9.210;2022-08-21T15:55:20;29.60;48.50
3232;DHT22;1628;48.884;9.210;2022-08-21T15:57:49;29.50;48.90
3232;DHT22;1628;48.884;9.210;2022-08-21T16:00:18;29.40;48.60
3232;DHT22;1628;48.884;9.210;2022-08-21T16:02:47;29.20;49.70
3232;DHT22;1628;48.884;9.210;2022-08-21T16:05:15;29.20;49.80
3232;DHT22;1628;48.884;9.210;2022-08-21T16:07:44;29.20;47.10
3232;DHT22;1628;48.884;9.210;2022-08-21T16:10:12;29.10;48.10
3232;DHT22;1628;48.884;9.210;2022-08-21T16:12:43;28.90;47.50
3232;DHT22;1628;48.884;9.210;2022-08-21T16:15:12;28.90;49.10
3232;DHT22;1628;48.884;9.210;2022-08-21T16:17:42;28.90;48.00
3232;DHT22;1628;48.884;9.210;2022-08-21T16:20:17;28.80;48.40
3232;DHT22;1628;48.884;9.210;2022-08-21T16:22:45;28.70;48.90
3232;DHT22;1628;48.884;9.210;2022-08-21T16:25:15;28.60;50.60
3232;DHT22;1628;48.884;9.210;2022-08-21T16:27:46;28.50;49.50
3232;DHT22;1628;48.884;9.210;2022-08-21T16:30:15;28.50;49.90
3232;DHT22;1628;48.884;9.210;2022-08-21T16:32:44;28.40;51.30
3232;DHT22;1628;48.884;9.210;2022-08-21T16:35:12;28.40;50.90
3232;DHT22;1628;48.884;9.210;2022-08-21T16:37:40;28.30;49.70
3232;DHT22;1628;48.884;9.210;2022-08-21T16:40:08;28.20;51.30
3232;DHT22;1628;48.884;9.210;2022-08-21T16:42:36;28.00;49.90
3232;DHT22;1628;48.884;9.210;2022-08-21T16:45:07;28.00;50.80
3232;DHT22;1628;48.884;9.210;2022-08-21T16:47:34;27.90;50.90
3232;DHT22;1628;48.884;9.210;2022-08-21T16:50:01;27.90;53.20
3232;DHT22;1628;48.884;9.210;2022-08-21T16:52:27;27.90;51.90
3232;DHT22;1628;48.884;9.210;2022-08-21T16:54:54;27.90;51.80
3232;DHT22;1628;48.884;9.210;2022-08-21T16:57:21;27.80;53.50
3232;DHT22;1628;48.884;9.210;2022-08-21T16:59:49;27.70;53.70
3232;DHT22;1628;48.884;9.210;2022-08-21T17:02:23;27.70;53.40
3232;DHT22;1628;48.884;9.210;2022-08-21T17:04:53;27.70;51.70
3232;DHT22;1628;48.884;9.210;2022-08-21T17:07:20;27.60;53.00
3232;DHT22;1628;48.884;9.210;2022-08-21T17:09:47;27.50;54.40
3232;DHT22;1628;48.884;9.210;2022-08-21T17:12:15;27.50;54.70
3232;DHT22;1628;48.884;9.210;2022-08-21T17:14:42;27.40;54.20
3232;DHT22;1628;48.884;9.210;2022-08-21T17:17:10;27.30;53.40
3232;DHT22;1628;48.884;9.210;2022-08-21T17:19:38;27.30;53.80
3232;DHT22;1628;48.884;9.210;2022-08-21T17:22:05;27.20;55.30
3232;DHT22;1628;48.884;9.210;2022-08-21T17:24:32;27.20;55.50
3232;DHT22;1628;48.884;9.210;2022-08-21T17:26:59;27.10;56.40
3232;DHT22;1628;48.884;9.210;2022-08-21T17:29:30;27.10;55.10
3232;DHT22;1628;48.884;9.210;2022-08-21T17:31:58;27.00;57.30
3232;DHT22;1628;48.884;9.210;2022-08-21T17:34:25;26.90;56.20
3232;DHT22;1628;48.884;9.210;2022-08-21T17:36:53;26.90;56.40
3232;DHT22;1628;48.884;9.210;2022-08-21T17:39:20;26.80;55.80
3232;DHT22;1628;48.884;9.210;2022-08-21T17:41:47;26.70;54.80
3232;DHT22;1628;48.884;9.210;2022-08-21T17:44:15;26.60;55.10
3232;DHT22;1628;48.884;9.210;2022-08-21T17:46:42;26.60;55.50
3232;DHT22;1628;48.884;9.210;2022-08-21T17:49:09;26.50;55.50
3232;DHT22;1628;48.884;9.210;2022-08-21T17:51:36;26.40;56.10
3232;DHT22;1628;48.884;9.210;2022-08-21T17:54:04;26.30;56.10
3232;DHT22;1628;48.884;9.210;2022-08-21T17:56:33;26.30;56.00
3232;DHT22;1628;48.884;9.210;2022-08-21T17:59:02;26.20;55.90
3232;DHT22;1628;48.884;9.210;2022-08-21T18:01:33;26.10;56.20
3232;DHT22;1628;48.884;9.210;2022-08-21T18:04:01;26.00;58.10
3232;DHT22;1628;48.884;9.210;2022-08-21T18:06:28;25.90;57.80
3232;DHT22;1628;48.884;9.210;2022-08-21T18:08:54;25.80;59.00
3232;DHT22;1628;48.884;9.210;2022-08-21T18:11:26;25.70;59.70
3232;DHT22;1628;48.884;9.210;2022-08-21T18:13:54;25.50;58.40
3232;DHT22;1628;48.884;9.210;2022-08-21T18:16:25;25.40;60.80
3232;DHT22;1628;48.884;9.210;2022-08-21T18:18:52;25.30;61.80
3232;DHT22;1628;48.884;9.210;2022-08-21T18:21:19;25.20;62.50
3232;DHT22;1628;48.884;9.210;2022-08-21T18:23:47;25.00;62.90
3232;DHT22;1628;48.884;9.210;2022-08-21T18:26:16;24.90;62.00
3232;DHT22;1628;48.884;9.210;2022-08-21T18:28:46;24.70;62.80
3232;DHT22;1628;48.884;9.210;2022-08-21T18:31:13;24.50;63.30
3232;DHT22;1628;48.884;9.210;2022-08-21T18:33:40;24.40;63.40
3232;DHT22;1628;48.884;9.210;2022-08-21T18:36:07;24.30;63.10
3232;DHT22;1628;48.884;9.210;2022-08-21T18:38:34;24.20;62.80
3232;DHT22;1628;48.884;9.210;2022-08-21T18:41:01;24.10;64.10
3232;DHT22;1628;48.884;9.210;2022-08-21T18:43:28;24.00;63.90
3232;DHT22;1628;48.884;9.210;2022-08-21T18:45:56;23.90;64.20
3232;DHT22;1628;48.884;9.210;2022-08-21T18:48:23;23.80;63.80
3232;DHT22;1628;48.884;9.210;2022-08-21T18:50:50;23.70;64.70
3232;DHT22;1628;48.884;9.210;2022-08-21T18:53:16;23.60;64.60
3232;DHT22;1628;48.884;9.210;2022-08-21T18:55:46;23.50;64.10
3232;DHT22;1628;48.884;9.210;2022-08-21T18:58:14;23.40;64.10
3232;DHT22;1628;48.884;9.210;2022-08-21T19:00:43;23.30;64.60
3232;DHT22;1628;48.884;9.210;2022-08-21T19:03:14;23.20;65.10
3232;DHT22;1628;48.884;9.210;2022-08-21T19:05:42;23.10;66.20
3232;DHT22;1628;48.884;9.210;2022-08-21T19:08:10;23.00;66.80
3232;DHT22;1628;48.884;9.210;2022-08-21T19:10:38;22.90;66.90
3232;DHT22;1628;48.884;9.210;2022-08-21T19:13:05;22.90;68.40
3232;DHT22;1628;48.884;9.210;2022-08-21T19:15:33;22.80;67.10
3232;DHT22;1628;48.884;9.210;2022-08-21T19:18:02;22.70;67.20
3232;DHT22;1628;48.884;9.210;2022-08-21T19:20:32;22.60;66.90
3232;DHT22;1628;48.884;9.210;2022-08-21T19:23:02;22.60;66.60
3232;DHT22;1628;48.884;9.210;2022-08-21T19:25:29;22.60;67.40
3232;DHT22;1628;48.884;9.210;2022-08-21T19:27:56;22.50;67.20
3232;DHT22;1628;48.884;9.210;2022-08-21T19:30:24;22.50;68.80
3232;DHT22;1628;48.884;9.210;2022-08-21T19:32:52;22.50;69.60
3232;DHT22;1628;48.884;9.210;2022-08-21T19:35:19;22.50;69.90
3232;DHT22;1628;48.884;9.210;2022-08-21T19:37:47;22.40;69.90
3232;DHT22;1628;48.884;9.210;2022-08-21T19:40:14;22.40;69.90
3232;DHT22;1628;48.884;9.210;2022-08-21T19:42:41;22.40;69.50
3232;DHT22;1628;48.884;9.210;2022-08-21T19:45:09;22.30;68.80
3232;DHT22;1628;48.884;9.210;2022-08-21T19:47:39;22.30;68.90
3232;DHT22;1628;48.884;9.210;2022-08-21T19:50:08;22.30;70.00
3232;DHT22;1628;48.884;9.210;2022-08-21T19:52:35;22.30;71.40
3232;DHT22;1628;48.884;9.210;2022-08-21T19:55:04;22.20;71.10
3232;DHT22;1628;48.884;9.210;2022-08-21T19:57:32;22.20;71.30
3232;DHT22;1628;48.884;9.210;2022-08-21T20:00:00;22.10;71.60
3232;DHT22;1628;48.884;9.210;2022-08-21T20:02:27;22.00;71.10
3232;DHT22;1628;48.884;9.210;2022-08-21T20:04:54;22.00;71.60
3232;DHT22;1628;48.884;9.210;2022-08-21T20:07:21;21.90;72.90
3232;DHT22;1628;48.884;9.210;2022-08-21T20:09:47;21.80;73.60
3232;DHT22;1628;48.884;9.210;2022-08-21T20:12:16;21.80;72.70
3232;DHT22;1628;48.884;9.210;2022-08-21T20:14:45;21.70;72.00
3232;DHT22;1628;48.884;9.210;2022-08-21T20:17:14;21.60;72.30